Time;durP1;ratioP1;P1;durP2;ratioP2;P2;SDS_P1;SDS_P2;PMS_P1;PMS_P2;Temp;Humidity;BMP_temperature;BMP_pressure;BME280_temperature;BME280_humidity;BME280_pressure;Samples;Min_cycle;Max_cycle;Signal;HPM_P1;HPM_P2
2020/12/03 00:01:54;;;;;;;24.75;3.78;;;;;;;8.15;100.00;101217.28;5091455;28;20055;-66
2020/12/03 00:04:19;;;;;;;13.88;2.35;;;;;;;8.15;100.00;101211.81;5091555;28;20390;-66
2020/12/03 00:06:50;;;;;;;20.35;2.85;;;;;;;8.16;100.00;101221.69;5091701;28;20093;-66
2020/12/03 00:09:18;;;;;;;21.20;2.70;;;;;;;8.22;100.00;101194.66;5091477;28;20032;-65
2020/12/03 00:11:48;;;;;;;12.77;1.60;;;;;;;8.32;100.00;101212.16;5091518;28;20032;-66
2020/12/03 00:14:14;;;;;;;18.10;3.55;;;;;;;8.40;100.00;101208.38;5091503;28;20115;-66
2020/12/03 00:16:41;;;;;;;14.95;2.13;;;;;;;8.49;100.00;101201.63;5091228;28;20118;-66
2020/12/03 00:19:09;;;;;;;18.63;2.05;;;;;;;8.58;100.00;101203.03;5091798;28;20439;-66
2020/12/03 00:21:41;;;;;;;10.75;1.77;;;;;;;8.64;100.00;101196.69;5091434;28;20122;-66
2020/12/03 00:24:09;;;;;;;13.38;1.90;;;;;;;8.69;100.00;101191.44;5091197;28;20052;-66
2020/12/03 00:26:36;;;;;;;16.55;1.98;;;;;;;8.72;100.00;101173.81;5091359;28;20024;-66
2020/12/03 00:29:03;;;;;;;17.33;2.28;;;;;;;8.73;100.00;101170.88;5091207;28;20470;-66
2020/12/03 00:31:28;;;;;;;15.52;1.95;;;;;;;8.74;100.00;101156.19;5091248;28;20032;-65
2020/12/03 00:33:55;;;;;;;17.73;1.90;;;;;;;8.73;100.00;101138.19;5091432;28;20438;-66
2020/12/03 00:36:21;;;;;;;16.13;2.17;;;;;;;8.73;100.00;101132.75;5091167;28;20127;-66
2020/12/03 00:38:50;;;;;;;11.80;1.88;;;;;;;8.73;100.00;101132.75;5089661;28;20036;-66
2020/12/03 00:41:17;;;;;;;10.63;1.42;;;;;;;8.76;100.00;101115.94;5091239;28;20055;-66
2020/12/03 00:43:42;;;;;;;16.85;2.45;;;;;;;8.77;100.00;101117.63;5091204;28;20036;-66
2020/12/03 00:46:08;;;;;;;18.75;2.20;;;;;;;8.80;100.00;101110.06;5091007;28;20047;-66
2020/12/03 00:48:34;;;;;;;12.18;2.47;;;;;;;8.80;100.00;101107.34;5091007;28;20047;-66
2020/12/03 00:50:59;;;;;;;16.15;2.20;;;;;;;8.82;100.00;101077.97;5091040;28;20036;-66
2020/12/03 00:53:25;;;;;;;19.42;2.03;;;;;;;8.83;100.00;101066.03;5090861;28;20047;-66
2020/12/03 00:55:50;;;;;;;12.85;2.20;;;;;;;8.84;100.00;101046.72;5091029;28;20043;-66
2020/12/03 00:58:16;;;;;;;18.10;2.83;;;;;;;8.88;100.00;101047.13;5090945;28;20032;-66
2020/12/03 01:00:42;;;;;;;17.77;2.45;;;;;;;8.90;100.00;101034.13;5090773;28;20092;-66
2020/12/03 01:03:08;;;;;;;16.88;2.35;;;;;;;8.92;100.00;101032.84;5089721;28;20040;-66
2020/12/03 01:05:34;;;;;;;22.95;2.75;;;;;;;8.95;100.00;101015.19;5091379;28;20473;-66
2020/12/03 01:08:00;;;;;;;17.88;2.08;;;;;;;8.96;100.00;101008.69;5091170;28;20107;-66
2020/12/03 01:10:30;;;;;;;19.00;2.15;;;;;;;9.00;100.00;101001.72;5094898;28;20185;-66
2020/12/03 01:12:56;;;;;;;13.50;2.65;;;;;;;9.02;100.00;100972.34;5095038;28;20038;-66
2020/12/03 01:15:22;;;;;;;16.80;2.85;;;;;;;9.03;100.00;100965.88;5094729;28;20040;-66
2020/12/03 01:17:48;;;;;;;19.25;2.15;;;;;;;9.04;100.00;100964.81;5094756;28;20036;-66
2020/12/03 01:20:19;;;;;;;18.73;2.42;;;;;;;9.02;100.00;100950.56;5093299;28;20399;-66
2020/12/03 01:22:45;;;;;;;19.60;2.78;;;;;;;9.03;100.00;100949.53;5094393;28;20417;-66
2020/12/03 01:25:11;;;;;;;12.85;1.75;;;;;;;9.02;100.00;100939.66;5094513;28;20048;-66
2020/12/03 01:27:38;;;;;;;14.30;1.95;;;;;;;9.03;100.00;100930.44;5094500;28;20039;-66
2020/12/03 01:30:08;;;;;;;7.97;2.33;;;;;;;9.04;100.00;100932.09;5093185;28;20575;-66
2020/12/03 01:32:34;;;;;;;15.00;2.00;;;;;;;9.04;100.00;100945.72;5094661;28;20032;-66
2020/12/03 01:35:00;;;;;;;15.52;1.92;;;;;;;9.03;100.00;100938.63;5094556;28;20048;-66
2020/12/03 01:37:26;;;;;;;18.17;1.70;;;;;;;9.03;100.00;100938.63;5094138;28;20040;-66
2020/12/03 01:39:51;;;;;;;11.63;1.73;;;;;;;9.04;100.00;100915.75;5094287;28;20036;-66
2020/12/03 01:42:21;;;;;;;10.48;1.38;;;;;;;9.04;100.00;100921.22;5075061;28;20513;-66
2020/12/03 01:44:50;;;;;;;12.07;1.77;;;;;;;9.04;100.00;100915.75;5094133;28;20093;-66
2020/12/03 01:47:31;;;;;;;10.07;1.60;;;;;;;9.05;100.00;100901.91;5094206;28;20028;-66
2020/12/03 01:49:57;;;;;;;8.95;1.73;;;;;;;9.07;100.00;100879.88;5094184;28;20024;-66
2020/12/03 01:52:23;;;;;;;11.15;1.92;;;;;;;9.09;100.00;100875.03;5093871;28;20028;-66
2020/12/03 01:54:50;;;;;;;8.63;1.85;;;;;;;9.10;100.00;100879.41;5094044;28;20484;-66
2020/12/03 01:57:15;;;;;;;14.50;1.55;;;;;;;9.12;100.00;100858.22;5093803;28;20084;-66
2020/12/03 01:59:48;;;;;;;15.48;1.60;;;;;;;9.15;100.00;100856.91;5093696;28;20428;-66
2020/12/03 02:02:16;;;;;;;12.40;1.30;;;;;;;9.17;100.00;100847.44;5093794;28;20028;-66
2020/12/03 02:04:41;;;;;;;11.85;1.92;;;;;;;9.21;100.00;100839.66;5094005;28;20405;-66
2020/12/03 02:07:13;;;;;;;9.20;1.30;;;;;;;9.23;100.00;100838.34;5093741;28;20336;-66
2020/12/03 02:09:39;;;;;;;7.60;1.17;;;;;;;9.28;100.00;100815.84;5093791;28;20032;-66
2020/12/03 02:12:05;;;;;;;8.95;1.70;;;;;;;9.28;100.00;100813.94;5093770;28;20146;-66
2020/12/03 02:14:31;;;;;;;15.57;1.33;;;;;;;9.29;100.00;100798.41;5093446;28;20032;-66
2020/12/03 02:16:57;;;;;;;6.97;1.10;;;;;;;9.31;100.00;100802.56;5093468;28;20115;-66
2020/12/03 02:19:27;;;;;;;8.65;1.05;;;;;;;9.33;100.00;100794.97;5092601;28;20032;-66
2020/12/03 02:22:06;;;;;;;6.30;0.95;;;;;;;9.30;100.00;100800.91;5093052;28;20040;-66
2020/12/03 02:24:37;;;;;;;10.43;1.27;;;;;;;9.22;100.00;100793.09;5093407;28;20355;-66
2020/12/03 02:27:04;;;;;;;6.00;1.52;;;;;;;9.12;100.00;100781.91;5093354;28;20035;-66
2020/12/03 02:29:30;;;;;;;10.85;1.00;;;;;;;9.05;100.00;100778.47;5093649;28;20500;-66
2020/12/03 02:31:55;;;;;;;5.05;1.25;;;;;;;8.99;100.00;100771.22;5093210;28;20040;-66
2020/12/03 02:34:21;;;;;;;6.28;1.13;;;;;;;8.87;100.00;100762.22;5093208;28;20050;-66
2020/12/03 02:36:52;;;;;;;5.07;0.70;;;;;;;8.85;100.00;100757.00;5093213;28;20047;-66
2020/12/03 02:39:19;;;;;;;9.23;0.80;;;;;;;8.84;100.00;100751.75;5093110;28;20174;-66
2020/12/03 02:41:44;;;;;;;7.05;0.70;;;;;;;8.81;100.00;100746.78;5093035;28;20093;-66
2020/12/03 02:44:10;;;;;;;5.40;1.20;;;;;;;8.79;100.00;100727.13;5092791;28;20057;-66
2020/12/03 02:46:36;;;;;;;9.98;0.80;;;;;;;8.75;100.00;100713.97;5092894;28;20426;-66
2020/12/03 02:49:01;;;;;;;5.95;0.80;;;;;;;8.74;100.00;100709.59;5092883;28;20559;-66
2020/12/03 02:51:27;;;;;;;5.05;0.82;;;;;;;8.75;100.00;100711.25;5092659;28;20254;-66
2020/12/03 02:53:52;;;;;;;5.57;1.45;;;;;;;8.75;100.00;100699.53;5092910;28;20505;-66
2020/12/03 02:56:18;;;;;;;5.18;1.23;;;;;;;8.76;100.00;100680.25;5092764;28;20131;-66
2020/12/03 02:58:43;;;;;;;5.88;0.95;;;;;;;8.79;100.00;100675.38;5092538;28;20069;-66
2020/12/03 03:01:09;;;;;;;7.20;0.63;;;;;;;8.77;100.00;100673.72;5092584;28;20032;-65
2020/12/03 03:03:35;;;;;;;8.43;0.98;;;;;;;8.81;100.00;100659.63;5092597;28;20028;-66
2020/12/03 03:06:00;;;;;;;8.80;1.13;;;;;;;8.85;100.00;100649.94;5092488;28;20083;-65
2020/12/03 03:08:26;;;;;;;8.82;1.35;;;;;;;8.86;100.00;100640.72;5092606;28;20044;-66
2020/12/03 03:10:52;;;;;;;6.22;0.80;;;;;;;8.88;100.00;100639.41;5092594;28;20036;-65
2020/12/03 03:13:18;;;;;;;4.10;0.88;;;;;;;8.90;100.00;100617.38;5092787;28;20040;-66
2020/12/03 03:15:44;;;;;;;9.25;1.30;;;;;;;8.92;100.00;100612.53;5092744;28;20393;-66
2020/12/03 03:18:09;;;;;;;7.55;1.52;;;;;;;8.93;100.00;100601.41;5092425;28;20499;-66
2020/12/03 03:20:36;;;;;;;9.52;1.92;;;;;;;8.96;100.00;100586.47;5092342;28;20139;-65
2020/12/03 03:23:01;;;;;;;6.22;1.08;;;;;;;8.99;100.00;100577.81;5091893;28;20047;-65
2020/12/03 03:25:27;;;;;;;13.38;1.35;;;;;;;9.00;100.00;100563.97;5092178;28;20056;-66
2020/12/03 03:27:53;;;;;;;9.38;0.90;;;;;;;9.03;100.00;100554.50;5092260;28;20044;-65
2020/12/03 03:30:18;;;;;;;13.57;2.15;;;;;;;9.04;100.00;100556.16;5092227;28;20043;-65
2020/12/03 03:32:44;;;;;;;13.25;1.63;;;;;;;9.05;100.00;100547.75;5091858;28;20147;-65
2020/12/03 03:35:09;;;;;;;12.48;1.48;;;;;;;9.05;100.00;100542.28;5090935;28;20477;-65
2020/12/03 03:37:35;;;;;;;13.40;1.08;;;;;;;9.03;100.00;100530.00;5091823;28;20036;-65
2020/12/03 03:40:04;;;;;;;12.07;1.75;;;;;;;9.04;100.00;100531.63;5091921;28;20512;-65
2020/12/03 03:42:30;;;;;;;16.85;1.23;;;;;;;9.01;100.00;100523.91;5092061;28;20074;-65
2020/12/03 03:44:56;;;;;;;9.13;1.33;;;;;;;8.98;100.00;100514.34;5091946;28;20039;-65
2020/12/03 03:47:21;;;;;;;10.60;1.45;;;;;;;8.96;100.00;100505.59;5091962;28;20052;-65
2020/12/03 03:49:47;;;;;;;12.48;1.40;;;;;;;8.93;100.00;100491.63;5091888;28;20032;-65
2020/12/03 03:52:12;;;;;;;6.20;1.40;;;;;;;8.92;100.00;100484.53;5091614;28;20043;-65
2020/12/03 03:54:38;;;;;;;6.30;0.60;;;;;;;8.84;100.00;100474.81;5091823;28;20047;-65
2020/12/03 03:57:04;;;;;;;9.82;1.02;;;;;;;8.83;100.00;100464.16;5091752;28;20077;-65
2020/12/03 03:59:30;;;;;;;4.68;0.60;;;;;;;8.76;100.00;100459.69;5091599;28;20040;-65
2020/12/03 04:01:55;;;;;;;10.60;1.48;;;;;;;8.74;100.00;100448.22;5091868;28;20044;-65
2020/12/03 04:04:21;;;;;;;6.60;0.70;;;;;;;8.72;100.00;100438.63;5091850;28;20044;-65
2020/12/03 04:06:47;;;;;;;5.65;0.85;;;;;;;8.70;100.00;100430.69;5091497;28;20141;-65
2020/12/03 04:09:12;;;;;;;10.07;0.90;;;;;;;8.68;100.00;100427.41;5091604;28;20063;-65
2020/12/03 04:11:38;;;;;;;6.38;1.25;;;;;;;8.67;100.00;100411.28;5091515;28;20371;-66
2020/12/03 04:14:03;;;;;;;5.63;0.80;;;;;;;8.66;100.00;100410.44;5091371;28;20032;-65
2020/12/03 04:16:29;;;;;;;6.28;0.73;;;;;;;8.64;100.00;100398.97;5091536;28;20520;-65
2020/12/03 04:18:55;;;;;;;4.45;0.95;;;;;;;8.66;100.00;100387.84;5091597;28;20036;-65
2020/12/03 04:21:20;;;;;;;4.45;1.17;;;;;;;8.62;100.00;100373.88;5091435;28;20051;-65
2020/12/03 04:23:46;;;;;;;6.30;0.70;;;;;;;8.61;100.00;100364.06;5091157;28;20052;-65
2020/12/03 04:26:13;;;;;;;7.75;1.27;;;;;;;8.61;100.00;100358.63;5091375;28;20061;-65
2020/12/03 04:28:39;;;;;;;3.53;0.90;;;;;;;8.60;100.00;100339.81;5090960;28;20043;-65
2020/12/03 04:31:05;;;;;;;8.00;0.60;;;;;;;8.59;100.00;100347.16;5091245;28;20024;-65
2020/12/03 04:33:31;;;;;;;4.75;1.00;;;;;;;8.60;100.00;100334.38;5091265;28;20047;-65
2020/12/03 04:35:56;;;;;;;4.38;0.82;;;;;;;8.61;100.00;100328.69;5091143;28;20050;-65
2020/12/03 04:38:22;;;;;;;9.02;1.05;;;;;;;8.63;100.00;100329.25;5091146;28;20043;-65
2020/12/03 04:40:50;;;;;;;5.97;0.88;;;;;;;8.60;100.00;100282.66;5091008;28;20055;-65
2020/12/03 04:43:34;;;;;;;3.08;0.45;;;;;;;8.62;100.00;100291.41;5090260;28;20027;-65
2020/12/03 04:46:25;;;;;;;4.45;0.70;;;;;;;8.61;100.00;100274.25;5091150;28;20036;-65
2020/12/03 04:49:23;;;;;;;4.30;0.68;;;;;;;8.57;100.00;100262.19;5059101;28;20052;-65
2020/12/03 04:52:24;;;;;;;5.57;0.57;;;;;;;8.50;100.00;100260.66;5090973;28;20040;-65
2020/12/03 04:55:14;;;;;;;3.83;0.70;;;;;;;8.45;100.00;100245.06;5091106;28;20032;-66
2020/12/03 04:57:55;;;;;;;4.82;0.90;;;;;;;8.45;100.00;100242.34;5090756;28;20039;-65
2020/12/03 05:01:02;;;;;;;9.40;0.95;;;;;;;8.37;100.00;100229.16;5090947;28;20036;-65
2020/12/03 05:03:30;;;;;;;3.60;0.70;;;;;;;8.34;100.00;100225.03;5066819;28;20044;-65
2020/12/03 05:06:14;;;;;;;3.97;0.50;;;;;;;8.30;100.00;100207.47;5090808;28;20122;-65
2020/12/03 05:08:59;;;;;;;3.75;1.00;;;;;;;8.30;100.00;100206.66;5090912;28;20070;-65
2020/12/03 05:11:31;;;;;;;3.55;0.68;;;;;;;8.26;100.00;100194.63;5091003;28;20047;-65
2020/12/03 05:14:02;;;;;;;4.95;0.63;;;;;;;8.26;100.00;100189.16;5090683;28;20118;-65
2020/12/03 05:16:39;;;;;;;3.67;0.70;;;;;;;8.24;100.00;100175.00;5090810;28;20036;-65
2020/12/03 05:19:32;;;;;;;6.63;0.60;;;;;;;8.16;100.00;100158.00;5090835;28;20484;-65
2020/12/03 05:21:59;;;;;;;4.45;0.40;;;;;;;8.13;100.00;100153.03;5090834;28;20036;-65
2020/12/03 05:24:24;;;;;;;4.90;0.90;;;;;;;8.13;100.00;100144.88;5090589;28;20076;-65
2020/12/03 05:26:50;;;;;;;2.90;0.60;;;;;;;8.14;100.00;100135.63;5090624;28;20063;-65
2020/12/03 05:29:15;;;;;;;7.95;1.13;;;;;;;8.16;100.00;100129.97;5090608;28;20039;-65
2020/12/03 05:31:44;;;;;;;3.95;0.70;;;;;;;8.15;100.00;100120.97;5090642;28;20074;-65
2020/12/03 05:34:17;;;;;;;3.55;0.70;;;;;;;8.13;100.00;100109.50;5090685;28;20028;-66
2020/12/03 05:37:05;;;;;;;10.38;0.80;;;;;;;8.18;100.00;100102.53;5090601;28;20036;-65
2020/12/03 05:39:44;;;;;;;5.63;0.57;;;;;;;8.15;100.00;100091.03;5090636;28;20039;-65
2020/12/03 05:42:12;;;;;;;4.32;0.50;;;;;;;8.12;100.00;100075.22;5090689;28;20085;-65
2020/12/03 05:44:40;;;;;;;4.32;0.50;;;;;;;8.13;100.00;100074.16;5090640;28;20085;-65
2020/12/03 05:47:24;;;;;;;3.88;0.50;;;;;;;8.11;100.00;100070.84;5090475;28;20036;-65
2020/12/03 05:49:56;;;;;;;3.10;0.45;;;;;;;8.13;100.00;100060.56;5090440;28;20024;-65
2020/12/03 05:52:25;;;;;;;6.03;0.60;;;;;;;8.14;100.00;100043.16;5090502;28;20389;-66
2020/12/03 05:55:01;;;;;;;7.63;0.98;;;;;;;8.13;100.00;100033.34;5092250;28;20032;-65
2020/12/03 05:57:31;;;;;;;5.18;0.52;;;;;;;8.13;100.00;100027.91;5093864;28;20032;-65
2020/12/03 06:00:27;;;;;;;4.95;0.52;;;;;;;8.11;100.00;100008.31;5094127;28;20032;-65
2020/12/03 06:03:15;;;;;;;4.13;0.60;;;;;;;8.09;100.00;99998.75;5093703;28;20497;-65
2020/12/03 06:05:54;;;;;;;3.75;0.30;;;;;;;8.04;100.00;99980.47;5093845;28;20104;-65
2020/12/03 06:08:38;;;;;;;7.50;0.40;;;;;;;8.04;100.00;99972.28;5093802;28;20500;-65
2020/12/03 06:11:37;;;;;;;6.03;0.52;;;;;;;8.06;100.00;99962.00;5092381;28;20436;-66
2020/12/03 06:14:37;;;;;;;4.55;0.65;;;;;;;8.04;100.00;99947.81;5068322;28;20050;-65
2020/12/03 06:17:12;;;;;;;1.52;0.30;;;;;;;8.06;100.00;99945.69;5093965;28;20036;-65
2020/12/03 06:20:02;;;;;;;6.85;1.20;;;;;;;8.06;100.00;99926.63;5093514;28;20120;-65
2020/12/03 06:22:36;;;;;;;5.75;0.65;;;;;;;8.07;100.00;99925.56;5093636;28;20036;-65
2020/12/03 06:25:15;;;;;;;7.85;0.70;;;;;;;8.07;100.00;99913.88;5093459;28;20048;-65
2020/12/03 06:28:13;;;;;;;4.55;0.90;;;;;;;8.07;100.00;99901.09;5093446;28;20626;-65
2020/12/03 06:30:44;;;;;;;3.53;0.60;;;;;;;8.07;100.00;99879.34;5061905;28;20093;-65
2020/12/03 06:33:39;;;;;;;7.68;1.08;;;;;;;8.09;100.00;99889.97;5093320;28;20089;-65
2020/12/03 06:36:37;;;;;;;5.60;1.50;;;;;;;8.10;100.00;99867.13;5093541;28;20036;-65
2020/12/03 06:39:30;;;;;;;4.22;0.77;;;;;;;8.10;100.00;99857.06;5093343;28;20035;-66
2020/12/03 06:42:09;;;;;;;4.40;0.50;;;;;;;8.10;100.00;99843.47;5093053;28;20036;-65
2020/12/03 06:44:37;;;;;;;3.60;0.82;;;;;;;8.09;100.00;99841.84;5093537;28;20032;-65
2020/12/03 06:47:21;;;;;;;8.43;0.80;;;;;;;8.11;100.00;99828.81;5092963;28;20359;-65
2020/12/03 06:50:12;;;;;;;1.50;0.40;;;;;;;8.13;100.00;99814.97;5093053;28;20024;-65
2020/12/03 06:52:37;;;;;;;9.90;0.55;;;;;;;8.18;100.00;99806.88;5093074;28;20036;-65
2020/12/03 06:55:31;;;;;;;6.15;0.75;;;;;;;8.21;100.00;99794.69;5092912;28;20058;-65
2020/12/03 06:58:20;;;;;;;4.72;0.65;;;;;;;8.22;100.00;99786.25;5092775;28;20081;-65
2020/12/03 07:00:51;;;;;;;5.70;0.47;;;;;;;8.19;100.00;99777.78;5092866;28;20074;-65
2020/12/03 07:03:40;;;;;;;3.72;0.52;;;;;;;8.19;100.00;99764.19;5092582;28;20032;-65
2020/12/03 07:06:43;;;;;;;4.60;0.60;;;;;;;8.21;100.00;99767.47;5092316;28;20036;-65
2020/12/03 07:09:20;;;;;;;3.58;1.15;;;;;;;8.22;100.00;99741.94;5092748;28;20046;-66
2020/12/03 07:11:58;;;;;;;7.10;0.43;;;;;;;8.23;100.00;99746.28;5092389;28;20106;-65
2020/12/03 07:15:02;;;;;;;5.03;0.50;;;;;;;8.19;100.00;99731.56;5092614;28;20036;-66
2020/12/03 07:17:58;;;;;;;1.55;0.60;;;;;;;8.19;100.00;99716.06;5092442;28;20044;-66
2020/12/03 07:20:41;;;;;;;3.85;0.32;;;;;;;8.21;100.00;99711.19;5092519;28;20059;-65
2020/12/03 07:23:13;;;;;;;5.53;0.50;;;;;;;8.25;100.00;99700.59;5092203;28;20028;-65
2020/12/03 07:25:41;;;;;;;5.50;0.50;;;;;;;8.27;100.00;99684.84;5092355;28;20074;-65
2020/12/03 07:28:16;;;;;;;3.88;0.70;;;;;;;8.30;100.00;99670.75;5092265;28;20032;-65
2020/12/03 07:30:58;;;;;;;4.03;0.60;;;;;;;8.34;100.00;99677.38;5092295;28;20132;-65
2020/12/03 07:33:54;;;;;;;7.57;0.90;;;;;;;8.36;100.00;99662.41;5091962;28;20458;-65
2020/12/03 07:36:50;;;;;;;3.72;0.55;;;;;;;8.37;100.00;99646.91;5092041;28;20100;-65
2020/12/03 07:39:19;;;;;;;3.63;0.50;;;;;;;8.38;100.00;99629.50;5092290;28;20366;-65
2020/12/03 07:41:54;;;;;;;5.75;1.52;;;;;;;8.41;100.00;99629.00;5092098;28;20089;-65
2020/12/03 07:44:34;;;;;;;4.05;0.50;;;;;;;8.44;100.00;99614.88;5092039;28;20031;-66
2020/12/03 07:47:25;;;;;;;3.08;0.35;;;;;;;8.45;100.00;99606.44;5091983;28;20063;-65
2020/12/03 07:49:54;;;;;;;4.10;0.88;;;;;;;8.48;100.00;99594.22;5091895;28;20035;-65
2020/12/03 07:52:33;;;;;;;3.22;0.38;;;;;;;8.49;100.00;99589.59;5091888;28;20070;-65
2020/12/03 07:55:20;;;;;;;8.35;0.60;;;;;;;8.47;100.00;99581.69;5091793;28;20032;-65
2020/12/03 07:57:57;;;;;;;12.63;0.82;;;;;;;8.50;100.00;99580.34;5092166;28;20032;-65
2020/12/03 08:00:45;;;;;;;4.38;0.65;;;;;;;8.49;100.00;99565.94;5091809;28;20027;-65
2020/12/03 08:03:40;;;;;;;4.25;0.43;;;;;;;8.49;100.00;99560.50;5091933;28;20039;-65
2020/12/03 08:06:17;;;;;;;4.28;0.73;;;;;;;8.51;100.00;99555.63;5091866;28;20560;-65
2020/12/03 08:08:48;;;;;;;4.32;0.60;;;;;;;8.52;100.00;99551.84;5091603;28;20385;-65
2020/12/03 08:11:40;;;;;;;6.47;0.52;;;;;;;8.51;100.00;99533.88;5091305;28;20410;-65
2020/12/03 08:14:24;;;;;;;1.02;0.25;;;;;;;8.46;100.00;99533.81;5091664;28;20536;-65
2020/12/03 08:16:50;;;;;;;3.30;0.32;;;;;;;8.46;100.00;99525.66;5089994;28;20028;-65
2020/12/03 08:19:24;;;;;;;3.03;0.30;;;;;;;8.44;100.00;99511.47;5090791;28;20120;-65
2020/12/03 08:21:50;;;;;;;2.95;0.50;;;;;;;8.40;100.00;99505.75;5091431;28;20024;-65
2020/12/03 08:24:35;;;;;;;5.68;0.30;;;;;;;8.42;100.00;99491.88;5091076;28;20138;-65
2020/12/03 08:27:04;;;;;;;3.50;0.20;;;;;;;8.42;100.00;99475.56;5091034;28;20429;-65
2020/12/03 08:29:39;;;;;;;5.28;0.50;;;;;;;8.44;100.00;99467.94;5091482;28;20122;-65
2020/12/03 08:32:05;;;;;;;3.03;0.60;;;;;;;8.43;100.00;99463.59;5091184;28;20059;-65
2020/12/03 08:34:34;;;;;;;6.97;0.40;;;;;;;8.44;100.00;99462.50;5090036;28;20063;-65
2020/12/03 08:37:01;;;;;;;4.18;1.00;;;;;;;8.46;100.00;99452.19;5091182;28;20032;-65
2020/12/03 08:39:27;;;;;;;6.80;0.95;;;;;;;8.49;100.00;99443.50;5091102;28;20067;-65
2020/12/03 08:41:54;;;;;;;4.50;0.50;;;;;;;8.50;100.00;99417.91;5091137;28;20036;-66
2020/12/03 08:44:20;;;;;;;9.77;1.42;;;;;;;8.52;100.00;99423.94;5091207;28;20382;-65
2020/12/03 08:46:48;;;;;;;3.65;0.60;;;;;;;8.51;100.00;99405.97;5090978;28;20474;-65
2020/12/03 08:49:23;;;;;;;7.78;0.90;;;;;;;8.54;100.00;99399.19;5091191;28;20039;-65
2020/12/03 08:51:57;;;;;;;5.13;0.85;;;;;;;8.55;100.00;99384.50;5089293;28;20036;-64
2020/12/03 08:54:26;;;;;;;5.18;0.50;;;;;;;8.54;100.00;99375.50;5090219;28;20028;-66
2020/12/03 08:57:06;;;;;;;5.20;0.30;;;;;;;8.52;100.00;99369.53;5089913;28;20093;-65
2020/12/03 08:59:36;;;;;;;3.25;0.47;;;;;;;8.49;100.00;99361.88;5089980;28;20036;-63
2020/12/03 09:02:11;;;;;;;2.45;0.30;;;;;;;8.49;100.00;99355.59;5089749;28;20032;-64
2020/12/03 09:04:45;;;;;;;3.08;0.65;;;;;;;8.47;100.00;99342.28;5090459;28;20034;-68
2020/12/03 09:07:14;;;;;;;4.40;0.70;;;;;;;8.48;100.00;99338.47;5090050;28;20059;-67
2020/12/03 09:09:44;;;;;;;2.85;0.40;;;;;;;8.47;100.00;99325.94;5090104;28;20024;-69
2020/12/03 09:12:11;;;;;;;3.90;0.80;;;;;;;8.49;100.00;99318.34;5089667;28;20051;-65
2020/12/03 09:14:41;;;;;;;5.45;0.40;;;;;;;8.53;100.00;99296.88;5088342;28;20111;-64
2020/12/03 09:17:14;;;;;;;7.35;0.88;;;;;;;8.55;100.00;99300.16;5089742;28;20031;-65
2020/12/03 09:19:45;;;;;;;4.82;0.77;;;;;;;8.56;100.00;99291.72;5083683;28;20772;-65
2020/12/03 09:22:13;;;;;;;13.13;0.77;;;;;;;8.56;100.00;99275.38;5097071;28;20472;-68
2020/12/03 09:24:39;;;;;;;2.97;0.50;;;;;;;8.56;100.00;99269.94;5088385;28;20044;-66
2020/12/03 09:27:06;;;;;;;3.70;0.80;;;;;;;8.55;100.00;99267.50;5092135;28;20036;-63
2020/12/03 09:29:32;;;;;;;4.70;0.93;;;;;;;8.54;100.00;99250.34;5091580;28;20044;-65
2020/12/03 09:32:13;;;;;;;2.83;0.40;;;;;;;8.49;100.00;99236.72;5094047;28;20065;-63
2020/12/03 09:34:40;;;;;;;3.28;0.50;;;;;;;8.49;100.00;99214.94;5096468;28;20035;-64
2020/12/03 09:37:06;;;;;;;3.95;0.55;;;;;;;8.50;100.00;99213.84;5096495;28;20109;-61
2020/12/03 09:39:34;;;;;;;3.67;0.65;;;;;;;8.47;100.00;99211.69;5096451;28;20031;-64
2020/12/03 09:42:02;;;;;;;2.28;0.30;;;;;;;8.44;100.00;99201.34;5098416;28;20469;-65
2020/12/03 09:44:31;;;;;;;1.83;0.28;;;;;;;8.46;100.00;99199.16;5093492;28;20047;-65
2020/12/03 09:47:01;;;;;;;2.35;0.30;;;;;;;8.39;100.00;99187.72;5091345;28;20024;-66
2020/12/03 09:49:27;;;;;;;2.95;0.30;;;;;;;8.40;100.00;99183.94;5093306;28;20097;-63
2020/12/03 09:51:53;;;;;;;1.77;0.40;;;;;;;8.38;100.00;99188.81;5093306;28;20032;-65
2020/12/03 09:54:19;;;;;;;4.13;0.30;;;;;;;8.34;100.00;99174.13;5093472;28;20039;-69
2020/12/03 09:56:45;;;;;;;4.22;0.47;;;;;;;8.34;100.00;99171.41;5092740;28;20028;-69
2020/12/03 09:59:13;;;;;;;2.95;0.60;;;;;;;8.32;100.00;99162.63;5100227;28;20077;-68
2020/12/03 10:01:59;;;;;;;2.92;0.63;;;;;;;8.30;100.00;99140.34;5092731;28;20296;-68
2020/12/03 10:04:56;;;;;;;3.83;1.83;;;;;;;8.30;100.00;99140.34;5093518;28;20063;-67
2020/12/03 10:07:45;;;;;;;5.32;4.13;;;;;;;8.31;100.00;99122.94;5088680;28;20083;-66
2020/12/03 10:10:41;;;;;;;5.53;0.98;;;;;;;8.30;100.00;99124.84;5086851;28;20036;-63
2020/12/03 10:13:07;;;;;;;13.45;6.65;;;;;;;8.28;100.00;99115.31;5085898;28;20044;-62
2020/12/03 10:15:47;;;;;;;11.48;5.10;;;;;;;8.22;100.00;99100.09;5092742;28;20454;-65
2020/12/03 10:18:20;;;;;;;11.80;5.07;;;;;;;8.13;100.00;99097.88;5090185;28;20036;-62
2020/12/03 10:20:51;;;;;;;6.60;2.60;;;;;;;8.14;100.00;99094.06;5092216;28;20031;-64
2020/12/03 10:23:38;;;;;;;23.42;10.15;;;;;;;8.14;100.00;99077.75;5088512;28;20052;-65
2020/12/03 10:26:16;;;;;;;17.60;7.53;;;;;;;8.14;100.00;99072.31;5084912;28;20067;-68
2020/12/03 10:29:13;;;;;;;7.65;2.20;;;;;;;8.16;100.00;99058.47;5092939;28;20127;-66
2020/12/03 10:31:42;;;;;;;5.95;0.63;;;;;;;8.19;100.00;99051.69;5090938;28;20028;-64
2020/12/03 10:34:12;;;;;;;3.75;0.60;;;;;;;8.22;100.00;99034.81;5092205;28;20044;-67
2020/12/03 10:36:51;;;;;;;3.30;0.60;;;;;;;8.21;100.00;99023.13;5092712;28;20036;-64
2020/12/03 10:39:18;;;;;;;3.72;0.77;;;;;;;8.22;100.00;99015.78;5092875;28;20078;-66
2020/12/03 10:41:50;;;;;;;12.88;1.50;;;;;;;8.27;100.00;99004.91;5091131;28;20531;-67
2020/12/03 10:44:19;;;;;;;3.63;0.40;;;;;;;8.31;100.00;98995.09;5092308;28;20035;-67
2020/12/03 10:46:49;;;;;;;1.83;0.28;;;;;;;8.31;100.00;98990.47;5091945;28;20040;-73
2020/12/03 10:49:18;;;;;;;2.97;0.40;;;;;;;8.37;100.00;98983.19;5091976;28;20031;-64
2020/12/03 10:51:44;;;;;;;1.70;0.30;;;;;;;8.39;100.00;98984.53;5091471;28;20024;-65
2020/12/03 10:54:15;;;;;;;4.38;0.35;;;;;;;8.42;100.00;98980.44;5091791;28;20436;-68
2020/12/03 10:56:41;;;;;;;3.67;0.30;;;;;;;8.40;100.00;98975.28;5091893;28;20084;-66
2020/12/03 10:59:46;;;;;;;2.08;0.50;;;;;;;8.44;100.00;98956.50;5091987;28;20068;-72
2020/12/03 11:02:19;;;;;;;2.55;0.47;;;;;;;8.48;100.00;98930.38;5083709;28;20047;-63
2020/12/03 11:04:44;;;;;;;1.02;0.25;;;;;;;8.51;100.00;98923.59;5090058;28;20113;-64
2020/12/03 11:07:13;;;;;;;4.38;0.50;;;;;;;8.54;100.00;98915.69;5090973;28;20082;-66
2020/12/03 11:09:41;;;;;;;3.67;0.82;;;;;;;8.58;100.00;98914.03;5091789;28;20099;-65
2020/12/03 11:12:11;;;;;;;2.90;0.52;;;;;;;8.62;100.00;98904.22;5091609;28;20032;-70
2020/12/03 11:14:37;;;;;;;7.38;0.93;;;;;;;8.62;100.00;98887.91;5090321;28;20036;-71
2020/12/03 11:17:23;;;;;;;3.50;0.60;;;;;;;8.66;100.00;98878.09;5092107;28;20044;-71
2020/12/03 11:19:53;;;;;;;2.72;0.40;;;;;;;8.68;100.00;98881.38;5081047;28;20124;-68
2020/12/03 11:23:02;;;;;;;5.32;0.40;;;;;;;8.72;100.00;98866.09;5091317;28;20174;-67
2020/12/03 11:25:29;;;;;;;1.55;0.30;;;;;;;8.79;100.00;98865.78;5091662;28;20505;-70
2020/12/03 11:27:55;;;;;;;0.93;0.10;;;;;;;8.79;100.00;98845.94;5092237;28;20485;-72
2020/12/03 11:30:26;;;;;;;2.85;0.40;;;;;;;8.80;100.00;98836.66;5091441;28;20035;-67
2020/12/03 11:32:55;;;;;;;1.83;0.60;;;;;;;8.86;100.00;98821.97;5092427;28;20081;-68
2020/12/03 11:35:32;;;;;;;6.95;0.32;;;;;;;8.83;100.00;98820.59;5087866;28;20119;-66
2020/12/03 11:38:00;;;;;;;2.00;0.70;;;;;;;8.85;100.00;98809.41;5092026;28;20040;-65
2020/12/03 11:40:57;;;;;;;1.85;0.30;;;;;;;8.88;100.00;98792.53;5090705;28;20044;-67
2020/12/03 11:43:47;;;;;;;6.30;1.13;;;;;;;8.92;100.00;98780.00;5071969;28;20090;-67
2020/12/03 11:48:52;;;;;;;11.57;4.53;;;;;;;8.94;100.00;98769.63;5073018;28;20028;-65
2020/12/03 11:51:33;;;;;;;35.10;12.80;;;;;;;8.94;100.00;98766.91;5092112;28;20386;-71
2020/12/03 11:54:02;;;;;;;2.60;1.75;;;;;;;8.96;100.00;98757.38;5091418;28;20038;-67
2020/12/03 11:56:28;;;;;;;4.00;0.63;;;;;;;8.97;100.00;98750.00;5090854;28;20028;-67